sensor_id;sensor_type;location;lat;lon;timestamp;P1;durP1;ratioP1;P2;durP2;ratioP2
21091;SDS011;10704;42.678;23.288;2023-08-30T00:00:54;14.32;;;9.57;;
21091;SDS011;10704;42.678;23.288;2023-08-30T00:03:20;14.55;;;7.88;;
21091;SDS011;10704;42.678;23.288;2023-08-30T00:05:46;12.18;;;7.20;;
21091;SDS011;10704;42.678;23.288;2023-08-30T00:08:12;12.43;;;6.50;;
21091;SDS011;10704;42.678;23.288;2023-08-30T00:10:43;15.57;;;6.70;;
21091;SDS011;10704;42.678;23.288;2023-08-30T00:13:12;15.25;;;6.97;;
21091;SDS011;10704;42.678;23.288;2023-08-30T00:15:38;10.88;;;5.63;;
21091;SDS011;10704;42.678;23.288;2023-08-30T00:18:04;13.55;;;7.20;;
21091;SDS011;10704;42.678;23.288;2023-08-30T00:20:30;12.10;;;6.75;;
21091;SDS011;10704;42.678;23.288;2023-08-30T00:22:56;10.05;;;6.38;;
21091;SDS011;10704;42.678;23.288;2023-08-30T00:25:22;12.80;;;6.22;;
21091;SDS011;10704;42.678;23.288;2023-08-30T00:27:48;9.88;;;6.22;;
21091;SDS011;10704;42.678;23.288;2023-08-30T00:30:14;9.20;;;6.88;;
21091;SDS011;10704;42.678;23.288;2023-08-30T00:32:40;8.57;;;5.90;;
21091;SDS011;10704;42.678;23.288;2023-08-30T00:35:06;9.98;;;6.13;;
21091;SDS011;10704;42.678;23.288;2023-08-30T00:37:32;8.32;;;5.90;;
21091;SDS011;10704;42.678;23.288;2023-08-30T00:39:58;11.23;;;5.57;;
21091;SDS011;10704;42.678;23.288;2023-08-30T00:42:26;10.90;;;6.88;;
21091;SDS011;10704;42.678;23.288;2023-08-30T00:44:53;12.07;;;6.00;;
21091;SDS011;10704;42.678;23.288;2023-08-30T00:47:19;10.48;;;6.90;;
21091;SDS011;10704;42.678;23.288;2023-08-30T00:49:45;10.13;;;6.05;;
21091;SDS011;10704;42.678;23.288;2023-08-30T00:52:11;12.27;;;6.15;;
21091;SDS011;10704;42.678;23.288;2023-08-30T00:54:38;9.55;;;6.28;;
21091;SDS011;10704;42.678;23.288;2023-08-30T00:57:04;11.00;;;6.25;;
21091;SDS011;10704;42.678;23.288;2023-08-30T00:59:32;10.50;;;5.90;;
21091;SDS011;10704;42.678;23.288;2023-08-30T01:01:59;13.07;;;5.65;;
21091;SDS011;10704;42.678;23.288;2023-08-30T01:04:26;10.82;;;6.10;;
21091;SDS011;10704;42.678;23.288;2023-08-30T01:06:53;10.20;;;5.53;;
21091;SDS011;10704;42.678;23.288;2023-08-30T01:09:19;10.27;;;6.03;;
21091;SDS011;10704;42.678;23.288;2023-08-30T01:11:49;12.07;;;5.50;;
21091;SDS011;10704;42.678;23.288;2023-08-30T01:14:18;13.10;;;6.18;;
21091;SDS011;10704;42.678;23.288;2023-08-30T01:16:47;11.57;;;6.18;;
21091;SDS011;10704;42.678;23.288;2023-08-30T01:27:45;10.13;;;5.32;;
21091;SDS011;10704;42.678;23.288;2023-08-30T01:30:12;8.15;;;5.00;;
21091;SDS011;10704;42.678;23.288;2023-08-30T01:32:39;10.82;;;5.50;;
21091;SDS011;10704;42.678;23.288;2023-08-30T01:35:06;10.02;;;5.93;;
21091;SDS011;10704;42.678;23.288;2023-08-30T01:37:33;8.52;;;5.38;;
21091;SDS011;10704;42.678;23.288;2023-08-30T01:40:01;10.93;;;5.50;;
21091;SDS011;10704;42.678;23.288;2023-08-30T01:42:30;11.10;;;5.47;;
21091;SDS011;10704;42.678;23.288;2023-08-30T01:44:57;8.88;;;5.75;;
21091;SDS011;10704;42.678;23.288;2023-08-30T01:47:26;11.85;;;5.70;;
21091;SDS011;10704;42.678;23.288;2023-08-30T01:49:54;10.35;;;5.60;;
21091;SDS011;10704;42.678;23.288;2023-08-30T01:52:23;13.73;;;5.85;;
21091;SDS011;10704;42.678;23.288;2023-08-30T01:54:51;11.45;;;5.72;;
21091;SDS011;10704;42.678;23.288;2023-08-30T01:57:19;9.13;;;5.30;;
21091;SDS011;10704;42.678;23.288;2023-08-30T01:59:45;8.57;;;5.47;;
21091;SDS011;10704;42.678;23.288;2023-08-30T02:02:10;11.70;;;5.93;;
21091;SDS011;10704;42.678;23.288;2023-08-30T02:04:37;11.40;;;6.35;;
21091;SDS011;10704;42.678;23.288;2023-08-30T02:07:06;8.90;;;4.95;;
21091;SDS011;10704;42.678;23.288;2023-08-30T02:10:02;11.98;;;6.75;;
21091;SDS011;10704;42.678;23.288;2023-08-30T02:12:37;9.60;;;5.93;;
21091;SDS011;10704;42.678;23.288;2023-08-30T02:15:07;9.20;;;5.35;;
21091;SDS011;10704;42.678;23.288;2023-08-30T02:17:35;9.63;;;5.35;;
21091;SDS011;10704;42.678;23.288;2023-08-30T02:20:02;10.05;;;6.20;;
21091;SDS011;10704;42.678;23.288;2023-08-30T02:22:30;9.75;;;5.75;;
21091;SDS011;10704;42.678;23.288;2023-08-30T02:24:56;11.15;;;5.88;;
21091;SDS011;10704;42.678;23.288;2023-08-30T02:27:23;11.13;;;5.93;;
21091;SDS011;10704;42.678;23.288;2023-08-30T02:29:49;8.63;;;5.53;;
21091;SDS011;10704;42.678;23.288;2023-08-30T02:32:15;10.07;;;6.03;;
21091;SDS011;10704;42.678;23.288;2023-08-30T02:34:49;11.77;;;6.38;;
21091;SDS011;10704;42.678;23.288;2023-08-30T02:37:16;12.00;;;6.57;;
21091;SDS011;10704;42.678;23.288;2023-08-30T02:39:42;10.52;;;6.13;;
21091;SDS011;10704;42.678;23.288;2023-08-30T02:42:08;13.30;;;6.53;;
21091;SDS011;10704;42.678;23.288;2023-08-30T02:44:34;12.32;;;6.60;;
21091;SDS011;10704;42.678;23.288;2023-08-30T02:47:00;9.05;;;5.90;;
21091;SDS011;10704;42.678;23.288;2023-08-30T02:49:26;10.15;;;6.45;;
21091;SDS011;10704;42.678;23.288;2023-08-30T02:51:52;14.55;;;6.97;;
21091;SDS011;10704;42.678;23.288;2023-08-30T02:54:18;14.25;;;7.20;;
21091;SDS011;10704;42.678;23.288;2023-08-30T02:56:44;10.27;;;5.55;;
21091;SDS011;10704;42.678;23.288;2023-08-30T02:59:11;12.15;;;6.07;;
21091;SDS011;10704;42.678;23.288;2023-08-30T03:01:37;12.60;;;7.38;;
21091;SDS011;10704;42.678;23.288;2023-08-30T03:04:07;12.98;;;7.55;;
21091;SDS011;10704;42.678;23.288;2023-08-30T03:06:34;13.48;;;7.20;;
21091;SDS011;10704;42.678;23.288;2023-08-30T03:09:01;11.32;;;7.50;;
21091;SDS011;10704;42.678;23.288;2023-08-30T03:11:29;11.48;;;7.03;;
21091;SDS011;10704;42.678;23.288;2023-08-30T03:13:55;11.70;;;6.43;;
21091;SDS011;10704;42.678;23.288;2023-08-30T03:16:21;14.95;;;6.65;;
21091;SDS011;10704;42.678;23.288;2023-08-30T03:18:47;14.77;;;6.15;;
21091;SDS011;10704;42.678;23.288;2023-08-30T03:21:13;12.18;;;6.30;;
21091;SDS011;10704;42.678;23.288;2023-08-30T03:23:40;14.43;;;6.75;;
21091;SDS011;10704;42.678;23.288;2023-08-30T03:28:35;11.15;;;6.57;;
21091;SDS011;10704;42.678;23.288;2023-08-30T03:31:01;13.70;;;6.57;;
21091;SDS011;10704;42.678;23.288;2023-08-30T03:33:27;12.02;;;6.15;;
21091;SDS011;10704;42.678;23.288;2023-08-30T03:35:53;9.75;;;5.72;;
21091;SDS011;10704;42.678;23.288;2023-08-30T03:38:20;14.63;;;6.50;;
21091;SDS011;10704;42.678;23.288;2023-08-30T03:40:46;14.85;;;8.07;;
21091;SDS011;10704;42.678;23.288;2023-08-30T03:43:12;13.30;;;6.35;;
21091;SDS011;10704;42.678;23.288;2023-08-30T03:45:38;13.43;;;7.43;;
21091;SDS011;10704;42.678;23.288;2023-08-30T03:48:04;12.90;;;6.88;;
21091;SDS011;10704;42.678;23.288;2023-08-30T03:50:30;10.23;;;5.72;;
21091;SDS011;10704;42.678;23.288;2023-08-30T03:52:56;9.23;;;5.40;;
21091;SDS011;10704;42.678;23.288;2023-08-30T03:55:22;12.25;;;7.25;;
21091;SDS011;10704;42.678;23.288;2023-08-30T03:57:48;13.52;;;6.75;;
21091;SDS011;10704;42.678;23.288;2023-08-30T04:00:14;13.35;;;5.82;;
21091;SDS011;10704;42.678;23.288;2023-08-30T04:02:40;15.43;;;6.20;;
21091;SDS011;10704;42.678;23.288;2023-08-30T04:05:06;12.68;;;6.65;;
21091;SDS011;10704;42.678;23.288;2023-08-30T04:07:35;12.57;;;6.25;;
21091;SDS011;10704;42.678;23.288;2023-08-30T04:10:01;14.32;;;6.95;;
21091;SDS011;10704;42.678;23.288;2023-08-30T04:12:31;14.00;;;6.20;;
21091;SDS011;10704;42.678;23.288;2023-08-30T04:14:57;11.65;;;5.28;;
21091;SDS011;10704;42.678;23.288;2023-08-30T04:17:23;14.43;;;6.20;;
21091;SDS011;10704;42.678;23.288;2023-08-30T04:19:52;15.15;;;6.30;;
21091;SDS011;10704;42.678;23.288;2023-08-30T04:22:19;13.50;;;6.05;;
21091;SDS011;10704;42.678;23.288;2023-08-30T04:24:46;12.82;;;5.05;;
21091;SDS011;10704;42.678;23.288;2023-08-30T04:27:12;13.50;;;5.95;;
21091;SDS011;10704;42.678;23.288;2023-08-30T04:29:38;15.43;;;5.35;;
21091;SDS011;10704;42.678;23.288;2023-08-30T04:32:04;13.68;;;5.68;;
21091;SDS011;10704;42.678;23.288;2023-08-30T04:34:30;14.32;;;5.93;;
21091;SDS011;10704;42.678;23.288;2023-08-30T04:36:57;8.88;;;4.50;;
21091;SDS011;10704;42.678;23.288;2023-08-30T04:39:23;11.55;;;4.68;;
21091;SDS011;10704;42.678;23.288;2023-08-30T04:41:51;13.10;;;5.53;;
21091;SDS011;10704;42.678;23.288;2023-08-30T04:44:17;11.52;;;5.57;;
21091;SDS011;10704;42.678;23.288;2023-08-30T04:46:45;13.18;;;5.18;;
21091;SDS011;10704;42.678;23.288;2023-08-30T04:49:11;10.43;;;5.13;;
21091;SDS011;10704;42.678;23.288;2023-08-30T04:51:37;10.80;;;4.32;;
21091;SDS011;10704;42.678;23.288;2023-08-30T04:54:03;11.38;;;4.43;;
21091;SDS011;10704;42.678;23.288;2023-08-30T04:56:29;10.77;;;3.65;;
21091;SDS011;10704;42.678;23.288;2023-08-30T04:58:55;10.27;;;3.88;;
21091;SDS011;10704;42.678;23.288;2023-08-30T05:01:23;11.65;;;3.33;;
21091;SDS011;10704;42.678;23.288;2023-08-30T05:03:52;10.65;;;3.00;;
21091;SDS011;10704;42.678;23.288;2023-08-30T05:06:18;9.15;;;3.50;;
21091;SDS011;10704;42.678;23.288;2023-08-30T05:08:44;8.27;;;3.60;;
21091;SDS011;10704;42.678;23.288;2023-08-30T05:11:10;8.65;;;3.63;;
21091;SDS011;10704;42.678;23.288;2023-08-30T05:13:37;11.77;;;3.83;;
21091;SDS011;10704;42.678;23.288;2023-08-30T05:16:03;11.20;;;3.33;;
21091;SDS011;10704;42.678;23.288;2023-08-30T05:18:29;9.63;;;3.67;;
21091;SDS011;10704;42.678;23.288;2023-08-30T05:20:55;11.43;;;3.45;;
21091;SDS011;10704;42.678;23.288;2023-08-30T05:23:21;8.32;;;3.50;;
21091;SDS011;10704;42.678;23.288;2023-08-30T05:25:47;12.65;;;4.40;;
21091;SDS011;10704;42.678;23.288;2023-08-30T05:28:15;8.38;;;3.80;;
21091;SDS011;10704;42.678;23.288;2023-08-30T05:30:42;8.82;;;3.55;;
21091;SDS011;10704;42.678;23.288;2023-08-30T05:33:23;10.90;;;4.03;;
21091;SDS011;10704;42.678;23.288;2023-08-30T05:36:18;7.90;;;4.53;;
21091;SDS011;10704;42.678;23.288;2023-08-30T05:39:00;5.35;;;2.90;;
21091;SDS011;10704;42.678;23.288;2023-08-30T05:41:34;7.63;;;3.65;;
21091;SDS011;10704;42.678;23.288;2023-08-30T05:44:00;8.55;;;3.53;;
21091;SDS011;10704;42.678;23.288;2023-08-30T05:46:26;6.55;;;3.38;;
21091;SDS011;10704;42.678;23.288;2023-08-30T05:48:52;9.48;;;3.40;;
21091;SDS011;10704;42.678;23.288;2023-08-30T05:51:19;9.80;;;3.45;;
21091;SDS011;10704;42.678;23.288;2023-08-30T05:53:45;5.70;;;3.08;;
21091;SDS011;10704;42.678;23.288;2023-08-30T05:56:11;6.78;;;2.78;;
21091;SDS011;10704;42.678;23.288;2023-08-30T05:58:37;8.13;;;3.33;;
21091;SDS011;10704;42.678;23.288;2023-08-30T06:01:03;7.20;;;3.45;;
21091;SDS011;10704;42.678;23.288;2023-08-30T06:03:31;6.82;;;2.95;;
21091;SDS011;10704;42.678;23.288;2023-08-30T06:05:57;7.78;;;3.20;;
21091;SDS011;10704;42.678;23.288;2023-08-30T06:08:23;8.40;;;3.20;;
21091;SDS011;10704;42.678;23.288;2023-08-30T06:10:49;6.25;;;3.70;;
21091;SDS011;10704;42.678;23.288;2023-08-30T06:13:15;7.82;;;3.50;;
21091;SDS011;10704;42.678;23.288;2023-08-30T06:15:41;7.68;;;3.22;;
21091;SDS011;10704;42.678;23.288;2023-08-30T06:18:07;7.50;;;3.60;;
21091;SDS011;10704;42.678;23.288;2023-08-30T06:20:33;5.82;;;3.22;;
21091;SDS011;10704;42.678;23.288;2023-08-30T06:22:58;8.57;;;3.75;;
21091;SDS011;10704;42.678;23.288;2023-08-30T06:25:28;7.47;;;3.35;;
21091;SDS011;10704;42.678;23.288;2023-08-30T06:27:55;6.93;;;3.75;;
21091;SDS011;10704;42.678;23.288;2023-08-30T06:30:26;5.63;;;3.17;;
21091;SDS011;10704;42.678;23.288;2023-08-30T06:32:55;6.43;;;3.72;;
21091;SDS011;10704;42.678;23.288;2023-08-30T06:35:22;9.07;;;3.47;;
21091;SDS011;10704;42.678;23.288;2023-08-30T06:37:48;8.52;;;3.65;;
21091;SDS011;10704;42.678;23.288;2023-08-30T06:40:14;8.15;;;3.10;;
21091;SDS011;10704;42.678;23.288;2023-08-30T06:42:40;9.20;;;3.45;;
21091;SDS011;10704;42.678;23.288;2023-08-30T06:45:06;6.93;;;3.90;;
21091;SDS011;10704;42.678;23.288;2023-08-30T06:47:32;5.93;;;3.20;;
21091;SDS011;10704;42.678;23.288;2023-08-30T06:49:59;7.70;;;3.35;;
21091;SDS011;10704;42.678;23.288;2023-08-30T06:52:25;6.18;;;3.28;;
21091;SDS011;10704;42.678;23.288;2023-08-30T06:54:51;6.68;;;3.53;;
21091;SDS011;10704;42.678;23.288;2023-08-30T06:57:17;9.45;;;3.90;;
21091;SDS011;10704;42.678;23.288;2023-08-30T06:59:43;10.82;;;3.60;;
21091;SDS011;10704;42.678;23.288;2023-08-30T07:02:09;7.50;;;3.95;;
21091;SDS011;10704;42.678;23.288;2023-08-30T07:04:35;8.55;;;3.47;;
21091;SDS011;10704;42.678;23.288;2023-08-30T07:07:01;6.50;;;3.25;;
21091;SDS011;10704;42.678;23.288;2023-08-30T07:09:27;8.55;;;3.40;;
21091;SDS011;10704;42.678;23.288;2023-08-30T07:11:57;9.02;;;3.38;;
21091;SDS011;10704;42.678;23.288;2023-08-30T07:14:23;9.35;;;3.33;;
21091;SDS011;10704;42.678;23.288;2023-08-30T07:16:49;8.25;;;4.05;;
21091;SDS011;10704;42.678;23.288;2023-08-30T07:19:16;9.00;;;3.60;;
21091;SDS011;10704;42.678;23.288;2023-08-30T07:21:42;12.05;;;4.13;;
21091;SDS011;10704;42.678;23.288;2023-08-30T07:24:08;7.20;;;4.32;;
21091;SDS011;10704;42.678;23.288;2023-08-30T07:26:34;9.82;;;4.18;;
21091;SDS011;10704;42.678;23.288;2023-08-30T07:29:00;10.00;;;4.20;;
21091;SDS011;10704;42.678;23.288;2023-08-30T07:31:27;8.00;;;4.25;;
21091;SDS011;10704;42.678;23.288;2023-08-30T07:33:53;9.98;;;3.70;;
21091;SDS011;10704;42.678;23.288;2023-08-30T07:36:19;6.03;;;3.15;;
21091;SDS011;10704;42.678;23.288;2023-08-30T07:38:45;6.18;;;3.03;;
21091;SDS011;10704;42.678;23.288;2023-08-30T07:41:11;6.20;;;3.17;;
21091;SDS011;10704;42.678;23.288;2023-08-30T07:43:36;13.02;;;4.32;;
21091;SDS011;10704;42.678;23.288;2023-08-30T07:46:02;6.30;;;3.08;;
21091;SDS011;10704;42.678;23.288;2023-08-30T07:48:29;7.63;;;3.13;;
21091;SDS011;10704;42.678;23.288;2023-08-30T07:50:54;6.75;;;3.15;;
21091;SDS011;10704;42.678;23.288;2023-08-30T07:53:20;5.78;;;3.25;;
21091;SDS011;10704;42.678;23.288;2023-08-30T07:55:49;6.82;;;3.20;;
21091;SDS011;10704;42.678;23.288;2023-08-30T07:58:16;8.35;;;4.07;;
21091;SDS011;10704;42.678;23.288;2023-08-30T08:00:42;8.55;;;3.42;;
21091;SDS011;10704;42.678;23.288;2023-08-30T08:03:08;7.25;;;3.78;;
21091;SDS011;10704;42.678;23.288;2023-08-30T08:05:37;8.18;;;3.58;;
21091;SDS011;10704;42.678;23.288;2023-08-30T08:08:04;7.93;;;4.40;;
21091;SDS011;10704;42.678;23.288;2023-08-30T08:10:33;6.90;;;3.15;;
21091;SDS011;10704;42.678;23.288;2023-08-30T08:12:59;5.22;;;3.17;;
21091;SDS011;10704;42.678;23.288;2023-08-30T08:15:25;8.48;;;3.15;;
21091;SDS011;10704;42.678;23.288;2023-08-30T08:17:51;9.57;;;3.05;;
21091;SDS011;10704;42.678;23.288;2023-08-30T08:20:20;8.25;;;3.47;;
21091;SDS011;10704;42.678;23.288;2023-08-30T08:22:48;7.38;;;3.03;;
21091;SDS011;10704;42.678;23.288;2023-08-30T08:25:14;11.35;;;2.78;;
21091;SDS011;10704;42.678;23.288;2023-08-30T08:27:41;5.30;;;2.30;;
21091;SDS011;10704;42.678;23.288;2023-08-30T08:30:07;6.80;;;2.50;;
21091;SDS011;10704;42.678;23.288;2023-08-30T08:32:35;7.68;;;3.20;;
21091;SDS011;10704;42.678;23.288;2023-08-30T08:35:01;7.53;;;2.85;;
21091;SDS011;10704;42.678;23.288;2023-08-30T08:37:28;8.18;;;3.17;;
21091;SDS011;10704;42.678;23.288;2023-08-30T08:39:54;7.22;;;2.90;;
21091;SDS011;10704;42.678;23.288;2023-08-30T08:42:20;9.18;;;3.13;;
21091;SDS011;10704;42.678;23.288;2023-08-30T08:44:47;5.22;;;3.17;;
21091;SDS011;10704;42.678;23.288;2023-08-30T08:47:16;7.32;;;3.00;;
21091;SDS011;10704;42.678;23.288;2023-08-30T08:49:44;5.20;;;2.80;;
21091;SDS011;10704;42.678;23.288;2023-08-30T08:52:10;6.82;;;3.33;;
21091;SDS011;10704;42.678;23.288;2023-08-30T08:54:38;6.65;;;2.88;;
21091;SDS011;10704;42.678;23.288;2023-08-30T08:57:08;8.45;;;2.95;;
21091;SDS011;10704;42.678;23.288;2023-08-30T08:59:34;7.90;;;3.42;;
21091;SDS011;10704;42.678;23.288;2023-08-30T09:02:01;7.93;;;3.25;;
21091;SDS011;10704;42.678;23.288;2023-08-30T09:04:30;7.80;;;3.47;;
21091;SDS011;10704;42.678;23.288;2023-08-30T09:07:00;9.15;;;3.83;;
21091;SDS011;10704;42.678;23.288;2023-08-30T09:09:27;10.20;;;3.80;;
21091;SDS011;10704;42.678;23.288;2023-08-30T09:11:53;5.72;;;3.60;;
21091;SDS011;10704;42.678;23.288;2023-08-30T09:14:19;8.20;;;3.70;;
21091;SDS011;10704;42.678;23.288;2023-08-30T09:16:58;8.65;;;3.92;;
21091;SDS011;10704;42.678;23.288;2023-08-30T09:19:25;8.02;;;3.03;;
21091;SDS011;10704;42.678;23.288;2023-08-30T09:21:55;10.25;;;3.28;;
21091;SDS011;10704;42.678;23.288;2023-08-30T09:24:24;7.72;;;3.55;;
21091;SDS011;10704;42.678;23.288;2023-08-30T09:26:51;5.88;;;3.38;;
21091;SDS011;10704;42.678;23.288;2023-08-30T09:29:18;6.72;;;3.30;;
21091;SDS011;10704;42.678;23.288;2023-08-30T09:31:45;5.93;;;3.47;;
21091;SDS011;10704;42.678;23.288;2023-08-30T09:34:11;8.05;;;3.65;;
21091;SDS011;10704;42.678;23.288;2023-08-30T09:36:40;10.68;;;3.63;;
21091;SDS011;10704;42.678;23.288;2023-08-30T09:39:10;5.03;;;3.42;;
21091;SDS011;10704;42.678;23.288;2023-08-30T09:41:47;7.53;;;4.47;;
21091;SDS011;10704;42.678;23.288;2023-08-30T09:44:15;9.52;;;4.70;;
21091;SDS011;10704;42.678;23.288;2023-08-30T09:46:46;7.28;;;3.90;;
21091;SDS011;10704;42.678;23.288;2023-08-30T09:49:14;8.25;;;4.20;;
21091;SDS011;10704;42.678;23.288;2023-08-30T09:51:41;7.63;;;3.80;;
21091;SDS011;10704;42.678;23.288;2023-08-30T09:54:18;9.43;;;4.20;;
21091;SDS011;10704;42.678;23.288;2023-08-30T09:56:45;8.85;;;3.45;;
21091;SDS011;10704;42.678;23.288;2023-08-30T09:59:12;9.82;;;4.22;;
21091;SDS011;10704;42.678;23.288;2023-08-30T10:01:43;7.15;;;4.20;;
21091;SDS011;10704;42.678;23.288;2023-08-30T10:04:10;9.32;;;4.00;;
21091;SDS011;10704;42.678;23.288;2023-08-30T10:06:37;8.07;;;3.55;;
21091;SDS011;10704;42.678;23.288;2023-08-30T10:09:04;7.70;;;4.00;;
21091;SDS011;10704;42.678;23.288;2023-08-30T10:11:33;8.35;;;4.25;;
21091;SDS011;10704;42.678;23.288;2023-08-30T10:14:04;7.47;;;4.72;;
21091;SDS011;10704;42.678;23.288;2023-08-30T10:16:41;10.52;;;3.88;;
21091;SDS011;10704;42.678;23.288;2023-08-30T10:19:28;5.47;;;3.95;;
21091;SDS011;10704;42.678;23.288;2023-08-30T10:24:40;9.30;;;4.95;;
21091;SDS011;10704;42.678;23.288;2023-08-30T10:27:14;12.80;;;5.78;;
21091;SDS011;10704;42.678;23.288;2023-08-30T10:29:40;11.55;;;4.82;;
21091;SDS011;10704;42.678;23.288;2023-08-30T10:32:07;9.65;;;4.38;;
21091;SDS011;10704;42.678;23.288;2023-08-30T10:34:36;8.77;;;4.97;;
21091;SDS011;10704;42.678;23.288;2023-08-30T10:37:03;10.98;;;5.85;;
21091;SDS011;10704;42.678;23.288;2023-08-30T10:39:34;12.80;;;6.47;;
21091;SDS011;10704;42.678;23.288;2023-08-30T10:42:06;9.65;;;5.63;;
21091;SDS011;10704;42.678;23.288;2023-08-30T10:47:23;8.63;;;5.65;;
21091;SDS011;10704;42.678;23.288;2023-08-30T10:49:59;9.15;;;5.32;;
21091;SDS011;10704;42.678;23.288;2023-08-30T10:52:29;7.72;;;4.93;;
21091;SDS011;10704;42.678;23.288;2023-08-30T10:57:32;9.98;;;5.75;;
21091;SDS011;10704;42.678;23.288;2023-08-30T11:00:05;12.68;;;5.15;;
21091;SDS011;10704;42.678;23.288;2023-08-30T11:02:38;7.78;;;4.90;;
21091;SDS011;10704;42.678;23.288;2023-08-30T11:05:11;7.65;;;5.20;;
21091;SDS011;10704;42.678;23.288;2023-08-30T11:07:37;9.85;;;5.00;;
21091;SDS011;10704;42.678;23.288;2023-08-30T11:10:06;9.27;;;5.03;;
21091;SDS011;10704;42.678;23.288;2023-08-30T11:12:34;11.05;;;5.60;;
21091;SDS011;10704;42.678;23.288;2023-08-30T11:15:00;8.80;;;5.05;;
21091;SDS011;10704;42.678;23.288;2023-08-30T11:17:27;9.25;;;5.45;;
21091;SDS011;10704;42.678;23.288;2023-08-30T11:22:51;9.35;;;4.80;;
21091;SDS011;10704;42.678;23.288;2023-08-30T11:25:21;13.00;;;5.15;;
21091;SDS011;10704;42.678;23.288;2023-08-30T11:27:46;7.05;;;4.85;;
21091;SDS011;10704;42.678;23.288;2023-08-30T11:30:12;9.30;;;4.43;;
21091;SDS011;10704;42.678;23.288;2023-08-30T11:32:39;10.13;;;4.75;;
21091;SDS011;10704;42.678;23.288;2023-08-30T11:35:06;9.55;;;5.25;;
21091;SDS011;10704;42.678;23.288;2023-08-30T11:37:33;7.95;;;5.07;;
21091;SDS011;10704;42.678;23.288;2023-08-30T11:39:59;8.95;;;5.30;;
21091;SDS011;10704;42.678;23.288;2023-08-30T11:42:26;10.60;;;5.10;;
21091;SDS011;10704;42.678;23.288;2023-08-30T11:44:52;10.68;;;4.93;;
21091;SDS011;10704;42.678;23.288;2023-08-30T11:47:19;9.32;;;5.07;;
21091;SDS011;10704;42.678;23.288;2023-08-30T11:49:49;6.75;;;4.05;;
21091;SDS011;10704;42.678;23.288;2023-08-30T11:52:17;8.98;;;4.47;;
21091;SDS011;10704;42.678;23.288;2023-08-30T11:54:45;8.60;;;5.15;;
21091;SDS011;10704;42.678;23.288;2023-08-30T11:57:15;7.57;;;4.53;;
21091;SDS011;10704;42.678;23.288;2023-08-30T11:59:41;7.50;;;3.97;;
21091;SDS011;10704;42.678;23.288;2023-08-30T12:02:07;8.27;;;4.47;;
21091;SDS011;10704;42.678;23.288;2023-08-30T12:04:40;8.65;;;5.00;;
21091;SDS011;10704;42.678;23.288;2023-08-30T12:07:08;8.05;;;4.72;;
21091;SDS011;10704;42.678;23.288;2023-08-30T12:09:34;11.55;;;4.82;;
21091;SDS011;10704;42.678;23.288;2023-08-30T12:12:06;8.23;;;5.25;;
21091;SDS011;10704;42.678;23.288;2023-08-30T12:14:36;7.57;;;4.72;;
21091;SDS011;10704;42.678;23.288;2023-08-30T12:17:03;8.10;;;4.95;;
21091;SDS011;10704;42.678;23.288;2023-08-30T12:19:29;7.38;;;4.95;;
21091;SDS011;10704;42.678;23.288;2023-08-30T12:21:56;8.18;;;4.80;;
21091;SDS011;10704;42.678;23.288;2023-08-30T12:24:28;6.88;;;4.05;;
21091;SDS011;10704;42.678;23.288;2023-08-30T12:26:54;9.85;;;4.78;;
21091;SDS011;10704;42.678;23.288;2023-08-30T12:29:20;7.88;;;5.28;;
21091;SDS011;10704;42.678;23.288;2023-08-30T12:31:45;8.70;;;5.35;;
21091;SDS011;10704;42.678;23.288;2023-08-30T12:34:11;9.65;;;5.45;;
21091;SDS011;10704;42.678;23.288;2023-08-30T12:36:37;10.45;;;5.55;;
21091;SDS011;10704;42.678;23.288;2023-08-30T12:39:03;7.22;;;4.88;;
21091;SDS011;10704;42.678;23.288;2023-08-30T12:41:29;9.43;;;4.55;;
21091;SDS011;10704;42.678;23.288;2023-08-30T12:43:55;9.88;;;5.13;;
21091;SDS011;10704;42.678;23.288;2023-08-30T12:46:21;10.30;;;5.72;;
21091;SDS011;10704;42.678;23.288;2023-08-30T12:48:47;10.38;;;5.07;;
21091;SDS011;10704;42.678;23.288;2023-08-30T12:51:12;8.48;;;4.80;;
21091;SDS011;10704;42.678;23.288;2023-08-30T12:53:40;11.25;;;4.88;;
21091;SDS011;10704;42.678;23.288;2023-08-30T12:56:06;6.88;;;4.38;;
21091;SDS011;10704;42.678;23.288;2023-08-30T12:58:31;7.05;;;4.68;;
21091;SDS011;10704;42.678;23.288;2023-08-30T13:00:57;8.65;;;5.03;;
21091;SDS011;10704;42.678;23.288;2023-08-30T13:03:23;7.80;;;4.60;;
21091;SDS011;10704;42.678;23.288;2023-08-30T13:05:49;7.50;;;4.50;;
21091;SDS011;10704;42.678;23.288;2023-08-30T13:08:15;7.57;;;4.15;;
21091;SDS011;10704;42.678;23.288;2023-08-30T13:10:41;7.43;;;4.63;;
21091;SDS011;10704;42.678;23.288;2023-08-30T13:13:07;9.32;;;4.45;;
21091;SDS011;10704;42.678;23.288;2023-08-30T13:15:33;8.88;;;4.45;;
21091;SDS011;10704;42.678;23.288;2023-08-30T13:18:00;6.95;;;3.90;;
21091;SDS011;10704;42.678;23.288;2023-08-30T13:20:26;8.25;;;4.15;;
21091;SDS011;10704;42.678;23.288;2023-08-30T13:22:51;10.50;;;4.85;;
21091;SDS011;10704;42.678;23.288;2023-08-30T13:25:17;6.07;;;3.47;;
21091;SDS011;10704;42.678;23.288;2023-08-30T13:27:43;7.80;;;3.65;;
21091;SDS011;10704;42.678;23.288;2023-08-30T13:30:09;8.98;;;4.28;;
21091;SDS011;10704;42.678;23.288;2023-08-30T13:32:35;9.95;;;5.03;;
21091;SDS011;10704;42.678;23.288;2023-08-30T13:35:01;7.07;;;4.10;;
21091;SDS011;10704;42.678;23.288;2023-08-30T13:37:28;5.85;;;3.50;;
21091;SDS011;10704;42.678;23.288;2023-08-30T13:39:54;10.48;;;4.25;;
21091;SDS011;10704;42.678;23.288;2023-08-30T13:42:20;7.15;;;3.80;;
21091;SDS011;10704;42.678;23.288;2023-08-30T13:44:46;9.25;;;4.20;;
21091;SDS011;10704;42.678;23.288;2023-08-30T13:47:17;10.48;;;3.88;;
21091;SDS011;10704;42.678;23.288;2023-08-30T13:49:44;7.10;;;3.97;;
21091;SDS011;10704;42.678;23.288;2023-08-30T13:52:10;8.50;;;4.30;;
21091;SDS011;10704;42.678;23.288;2023-08-30T13:54:35;7.93;;;3.90;;
21091;SDS011;10704;42.678;23.288;2023-08-30T13:57:01;8.82;;;4.40;;
21091;SDS011;10704;42.678;23.288;2023-08-30T13:59:28;8.48;;;3.70;;
21091;SDS011;10704;42.678;23.288;2023-08-30T14:01:55;8.35;;;4.20;;
21091;SDS011;10704;42.678;23.288;2023-08-30T14:04:23;9.32;;;4.00;;
21091;SDS011;10704;42.678;23.288;2023-08-30T14:06:51;8.02;;;4.07;;
21091;SDS011;10704;42.678;23.288;2023-08-30T14:09:17;7.72;;;4.13;;
21091;SDS011;10704;42.678;23.288;2023-08-30T14:11:43;10.15;;;4.35;;
21091;SDS011;10704;42.678;23.288;2023-08-30T14:14:09;7.15;;;4.00;;
21091;SDS011;10704;42.678;23.288;2023-08-30T14:16:35;5.47;;;3.13;;
21091;SDS011;10704;42.678;23.288;2023-08-30T14:19:01;5.68;;;3.42;;
21091;SDS011;10704;42.678;23.288;2023-08-30T14:21:31;8.73;;;3.33;;
21091;SDS011;10704;42.678;23.288;2023-08-30T14:23:57;6.55;;;3.38;;
21091;SDS011;10704;42.678;23.288;2023-08-30T14:26:23;7.25;;;4.57;;
21091;SDS011;10704;42.678;23.288;2023-08-30T14:28:49;8.23;;;4.97;;
21091;SDS011;10704;42.678;23.288;2023-08-30T14:31:14;8.02;;;3.47;;
21091;SDS011;10704;42.678;23.288;2023-08-30T14:33:44;6.43;;;3.08;;
21091;SDS011;10704;42.678;23.288;2023-08-30T14:36:10;6.57;;;3.53;;
21091;SDS011;10704;42.678;23.288;2023-08-30T14:38:36;8.45;;;3.20;;
21091;SDS011;10704;42.678;23.288;2023-08-30T14:41:02;6.90;;;3.20;;
21091;SDS011;10704;42.678;23.288;2023-08-30T14:43:28;7.20;;;3.42;;
21091;SDS011;10704;42.678;23.288;2023-08-30T14:46:01;5.38;;;3.40;;
21091;SDS011;10704;42.678;23.288;2023-08-30T14:48:28;10.27;;;3.70;;
21091;SDS011;10704;42.678;23.288;2023-08-30T14:50:55;6.10;;;3.67;;